Time;durP1;ratioP1;P1;durP2;ratioP2;P2;SDS_P1;SDS_P2;PMS_P1;PMS_P2;Temp;Humidity;BMP_temperature;BMP_pressure;BME280_temperature;BME280_humidity;BME280_pressure;Samples;Min_cycle;Max_cycle;Signal;HPM_P1;HPM_P2
2023/08/16 00:02:03;;;;;;;13.48;10.32;;;;;;;21.18;59.86;95101.19;5006835;28;20076;-82
2023/08/16 00:04:28;;;;;;;12.23;9.90;;;;;;;21.14;59.88;95088.72;5007110;28;20073;-82
2023/08/16 00:06:54;;;;;;;15.40;10.48;;;;;;;21.12;59.88;95091.25;5006981;28;20505;-82
2023/08/16 00:09:20;;;;;;;12.40;10.20;;;;;;;21.10;60.28;95091.75;5005415;28;20057;-81
2023/08/16 00:11:46;;;;;;;14.32;10.38;;;;;;;21.06;60.41;95082.09;5007144;28;20398;-82
2023/08/16 00:14:11;;;;;;;11.82;10.48;;;;;;;21.06;60.36;95091.22;5005747;28;20030;-81
2023/08/16 00:16:37;;;;;;;10.80;9.52;;;;;;;21.04;60.50;95085.38;5006356;28;20034;-81
2023/08/16 00:19:02;;;;;;;15.27;10.90;;;;;;;21.05;60.51;95094.53;5006772;28;20780;-81
2023/08/16 00:21:28;;;;;;;18.08;11.60;;;;;;;21.01;60.33;95091.22;5006885;28;20053;-80
2023/08/16 00:23:53;;;;;;;15.80;11.00;;;;;;;20.98;60.77;95098.56;5006578;28;20032;-80
2023/08/16 00:26:18;;;;;;;13.77;10.45;;;;;;;20.98;60.98;95097.78;5006362;28;20412;-81
2023/08/16 00:28:45;;;;;;;12.23;10.48;;;;;;;20.95;61.42;95100.31;5006534;28;20096;-81
2023/08/16 00:31:11;;;;;;;15.05;10.27;;;;;;;20.92;61.17;95087.34;5006943;28;20033;-82
2023/08/16 00:33:36;;;;;;;12.45;10.48;;;;;;;20.91;61.45;95097.00;5006172;28;20083;-81
2023/08/16 00:36:02;;;;;;;14.20;11.15;;;;;;;20.85;61.24;95078.69;5006806;28;20026;-81
2023/08/16 00:38:27;;;;;;;15.43;11.38;;;;;;;20.86;61.18;95089.34;5004528;28;20026;-80
2023/08/16 00:40:53;;;;;;;15.95;11.38;;;;;;;20.81;61.15;95089.31;5006391;28;20014;-81
2023/08/16 00:43:19;;;;;;;13.38;10.45;;;;;;;20.82;61.50;95094.44;5006440;28;20403;-81
2023/08/16 00:45:48;;;;;;;14.15;10.65;;;;;;;20.82;61.40;95096.47;5005703;28;20062;-81
2023/08/16 00:48:14;;;;;;;11.35;10.15;;;;;;;20.79;61.52;95101.00;5004795;28;20022;-81
2023/08/16 00:50:40;;;;;;;12.13;10.73;;;;;;;20.76;61.56;95093.66;5006106;28;20037;-81
2023/08/16 00:53:06;;;;;;;11.35;10.07;;;;;;;20.73;61.49;95091.84;5006426;28;20021;-81
2023/08/16 00:55:32;;;;;;;15.23;11.93;;;;;;;20.76;61.33;95093.66;5004970;28;20076;-81
2023/08/16 00:57:57;;;;;;;15.25;12.07;;;;;;;20.71;60.96;95102.00;5004846;28;20030;-81
2023/08/16 01:00:23;;;;;;;17.58;12.23;;;;;;;20.63;61.12;95102.44;5006195;28;20181;-80
2023/08/16 01:02:48;;;;;;;13.10;11.10;;;;;;;20.65;61.20;95101.97;5005558;28;20052;-81
2023/08/16 01:05:15;;;;;;;12.80;10.90;;;;;;;20.62;60.98;95092.53;5005962;28;20033;-80
2023/08/16 01:07:40;;;;;;;14.45;10.57;;;;;;;20.61;61.21;95098.63;5004727;28;20030;-81
2023/08/16 01:10:08;;;;;;;12.75;11.27;;;;;;;20.57;61.10;95084.13;5006032;28;20091;-81
2023/08/16 01:12:53;;;;;;;14.95;10.82;;;;;;;20.63;61.08;95096.09;5006096;28;20097;-81
2023/08/16 01:15:38;;;;;;;12.95;10.70;;;;;;;20.59;60.95;95085.19;5006065;28;20033;-81
2023/08/16 01:18:04;;;;;;;16.05;10.77;;;;;;;;;;5004612;28;20726;-81
2023/08/16 01:20:30;;;;;;;14.32;10.57;;;;;;;20.52;61.23;95082.06;5006312;28;20456;-80
2023/08/16 01:22:56;;;;;;;13.32;11.27;;;;;;;20.52;61.37;95085.63;5004865;28;20547;-80
2023/08/16 01:25:29;;;;;;;13.32;11.07;;;;;;;20.51;61.41;95077.75;5005995;28;20054;-81
2023/08/16 01:27:55;;;;;;;13.07;10.32;;;;;;;20.48;61.15;95090.69;5005405;28;20033;-81
2023/08/16 01:30:22;;;;;;;16.80;10.85;;;;;;;20.45;61.36;95083.28;5004185;28;20042;-81
2023/08/16 01:32:47;;;;;;;12.77;9.73;;;;;;;20.45;61.32;95088.84;5004403;28;20026;-81
2023/08/16 01:35:16;;;;;;;16.63;10.75;;;;;;;20.43;61.56;95088.59;5005893;28;20471;-80
2023/08/16 01:37:42;;;;;;;12.73;10.70;;;;;;;20.39;61.77;95086.03;5004646;28;20113;-80
2023/08/16 01:40:09;;;;;;;13.00;10.82;;;;;;;20.33;61.39;95085.22;5004466;28;20895;-81
2023/08/16 01:42:38;;;;;;;12.23;10.60;;;;;;;20.36;61.56;95081.47;5004472;28;20113;-81
2023/08/16 01:45:05;;;;;;;12.82;10.73;;;;;;;20.34;61.62;95078.38;5005618;28;20082;-82
2023/08/16 01:47:30;;;;;;;14.55;10.40;;;;;;;20.29;61.56;95079.09;5010410;28;20030;-81
2023/08/16 01:49:56;;;;;;;13.95;11.50;;;;;;;20.29;61.48;95079.09;5008195;28;20030;-81
2023/08/16 01:52:22;;;;;;;14.38;10.82;;;;;;;20.30;61.59;95075.06;5009675;28;20404;-81
2023/08/16 01:54:47;;;;;;;12.63;10.50;;;;;;;20.29;61.63;95073.53;5009329;28;20504;-81
2023/08/16 01:57:13;;;;;;;13.43;10.77;;;;;;;20.26;61.70;95073.78;5009404;28;20391;-81
2023/08/16 01:59:38;;;;;;;11.90;10.80;;;;;;;20.21;61.88;95063.31;5009321;28;20116;-82
2023/08/16 02:02:03;;;;;;;11.85;10.57;;;;;;;20.13;61.95;95065.81;5008931;28;20037;-83
2023/08/16 02:04:29;;;;;;;16.40;10.77;;;;;;;20.19;61.83;95065.88;5009359;28;20391;-80
2023/08/16 02:06:54;;;;;;;11.35;9.95;;;;;;;20.10;61.67;95061.97;5009071;28;20108;-80
2023/08/16 02:09:20;;;;;;;12.98;10.30;;;;;;;20.13;62.06;95068.63;5009013;28;20270;-80
2023/08/16 02:11:45;;;;;;;12.65;10.88;;;;;;;20.10;62.03;95067.56;5008990;28;20141;-81
2023/08/16 02:14:11;;;;;;;14.75;10.30;;;;;;;20.09;62.04;95066.03;5009002;28;20037;-80
2023/08/16 02:16:36;;;;;;;12.05;9.98;;;;;;;20.10;61.89;95069.59;5008825;28;20030;-80
2023/08/16 02:19:03;;;;;;;14.23;10.95;;;;;;;20.09;61.50;95071.63;5008822;28;20049;-81
2023/08/16 02:21:28;;;;;;;16.25;11.52;;;;;;;20.07;62.08;95079.72;5008795;28;20499;-81
2023/08/16 02:23:53;;;;;;;14.40;10.68;;;;;;;20.04;62.13;95074.38;5008918;28;20108;-81
2023/08/16 02:26:19;;;;;;;13.52;10.50;;;;;;;20.00;62.20;95071.78;5007861;28;20036;-82
2023/08/16 02:28:44;;;;;;;13.80;10.95;;;;;;;19.99;62.05;95072.28;5008994;28;20117;-81
2023/08/16 02:31:10;;;;;;;16.25;11.30;;;;;;;19.98;61.98;95067.97;5008489;28;20455;-82
2023/08/16 02:33:35;;;;;;;14.02;10.73;;;;;;;19.94;62.01;95067.44;5008682;28;20030;-83
2023/08/16 02:36:01;;;;;;;13.10;10.75;;;;;;;19.88;62.26;95059.03;5008481;28;20427;-82
2023/08/16 02:38:28;;;;;;;13.07;11.13;;;;;;;19.89;62.07;95061.31;5008380;28;20175;-80
2023/08/16 02:40:53;;;;;;;14.20;10.73;;;;;;;19.88;62.47;95059.03;5009569;28;20033;-79
2023/08/16 02:43:19;;;;;;;15.38;11.02;;;;;;;19.82;62.33;95058.97;5008861;28;20018;-80
2023/08/16 02:45:44;;;;;;;16.70;10.77;;;;;;;19.83;62.29;95057.72;5009202;28;20029;-81
2023/08/16 02:48:10;;;;;;;14.60;11.55;;;;;;;19.77;62.40;95059.69;5008250;28;20030;-81
2023/08/16 02:50:35;;;;;;;14.48;12.95;;;;;;;19.77;62.54;95068.06;5009329;28;20026;-82
2023/08/16 02:53:00;;;;;;;19.42;14.63;;;;;;;19.73;62.50;95067.53;5008876;28;20427;-81
2023/08/16 02:55:26;;;;;;;19.05;14.00;;;;;;;19.73;62.54;95075.16;5007286;28;20033;-81
2023/08/16 02:57:52;;;;;;;20.92;14.38;;;;;;;19.71;62.75;95067.25;5008626;28;20040;-81
2023/08/16 03:00:18;;;;;;;17.80;13.07;;;;;;;19.72;62.58;95068.78;5006985;28;20025;-81
2023/08/16 03:02:43;;;;;;;17.70;12.30;;;;;;;19.77;62.46;95070.09;5008583;28;20042;-81
2023/08/16 03:05:10;;;;;;;18.23;12.55;;;;;;;19.75;62.60;95064.25;5006489;28;20497;-81
2023/08/16 03:07:35;;;;;;;17.38;12.85;;;;;;;19.72;62.71;95074.34;5006979;28;20026;-81
2023/08/16 03:10:01;;;;;;;18.33;13.70;;;;;;;19.72;62.79;95065.97;5007978;28;20458;-81
2023/08/16 03:12:26;;;;;;;18.98;13.15;;;;;;;19.69;62.70;95074.59;5008197;28;20101;-81
2023/08/16 03:14:51;;;;;;;17.90;13.23;;;;;;;19.65;62.57;95062.88;5006526;28;20034;-81
2023/08/16 03:17:17;;;;;;;18.85;13.13;;;;;;;19.67;62.70;95066.72;5007896;28;20029;-82
2023/08/16 03:19:42;;;;;;;21.10;14.40;;;;;;;19.70;62.67;95073.31;5008328;28;20114;-81
2023/08/16 03:22:07;;;;;;;19.38;14.07;;;;;;;19.68;62.36;95079.41;5006402;28;20033;-81
2023/08/16 03:24:33;;;;;;;18.08;13.45;;;;;;;19.67;62.55;95082.66;5006339;28;20523;-81
2023/08/16 03:26:59;;;;;;;18.42;13.35;;;;;;;19.64;62.28;95073.28;5006999;28;20041;-81
2023/08/16 03:29:24;;;;;;;21.05;13.80;;;;;;;19.62;62.55;95075.81;5007620;28;20033;-81
2023/08/16 03:31:50;;;;;;;23.63;13.95;;;;;;;19.58;62.78;95080.78;5007819;28;20026;-81
2023/08/16 03:34:16;;;;;;;18.65;13.13;;;;;;;19.53;62.70;95075.94;5007407;28;20408;-81
2023/08/16 03:36:41;;;;;;;17.90;12.85;;;;;;;19.55;62.57;95070.63;5007157;28;20117;-81
2023/08/16 03:39:07;;;;;;;16.42;13.25;;;;;;;19.56;62.66;95075.72;5007510;28;20476;-81
2023/08/16 03:41:33;;;;;;;17.42;12.35;;;;;;;19.54;62.67;95081.00;5006098;28;20912;-81
2023/08/16 03:43:59;;;;;;;20.45;12.43;;;;;;;19.48;62.67;95080.19;5007114;28;20113;-81
2023/08/16 03:46:25;;;;;;;18.50;12.27;;;;;;;19.47;63.00;95083.47;5006935;28;20180;-80
2023/08/16 03:48:50;;;;;;;15.70;12.18;;;;;;;19.50;62.70;95080.47;5007516;28;20056;-80
2023/08/16 03:51:15;;;;;;;14.60;11.43;;;;;;;19.45;62.74;95078.41;5007741;28;20405;-82
2023/08/16 03:53:41;;;;;;;17.02;12.18;;;;;;;19.44;62.85;95078.88;5008875;28;20526;-81
2023/08/16 03:56:06;;;;;;;15.13;11.50;;;;;;;19.45;63.05;95083.22;5008024;28;20508;-82
2023/08/16 03:58:32;;;;;;;16.40;11.98;;;;;;;19.46;63.05;95079.94;5007372;28;20037;-81
2023/08/16 04:00:57;;;;;;;18.65;13.80;;;;;;;19.39;62.92;95063.63;5007310;28;20021;-81
2023/08/16 04:03:22;;;;;;;16.40;11.60;;;;;;;19.47;62.50;95086.25;5006767;28;20470;-80
2023/08/16 04:05:48;;;;;;;13.88;11.50;;;;;;;19.47;62.60;95084.25;5006789;28;20041;-82
2023/08/16 04:08:13;;;;;;;20.27;11.40;;;;;;;19.49;62.65;95084.50;5007093;28;20033;-81
2023/08/16 04:10:39;;;;;;;14.70;11.77;;;;;;;19.48;62.41;95087.78;5006438;28;20025;-79
2023/08/16 04:13:04;;;;;;;13.25;11.27;;;;;;;19.47;62.51;95089.81;5006288;28;20515;-81
2023/08/16 04:15:30;;;;;;;14.70;11.50;;;;;;;19.52;62.12;95097.47;5005750;28;20045;-80
2023/08/16 04:17:55;;;;;;;12.40;11.10;;;;;;;19.52;62.35;95097.47;5006823;28;20105;-80
2023/08/16 04:20:21;;;;;;;14.68;10.77;;;;;;;19.47;62.41;95089.06;5006532;28;20032;-80
2023/08/16 04:22:47;;;;;;;13.35;11.02;;;;;;;19.49;62.51;95092.09;5005281;28;20092;-79
2023/08/16 04:25:12;;;;;;;14.23;11.90;;;;;;;19.52;62.13;95091.91;5005339;28;20125;-80
2023/08/16 04:27:38;;;;;;;13.27;10.98;;;;;;;19.55;62.22;95096.47;4987969;28;20021;-81
2023/08/16 04:30:05;;;;;;;14.32;10.40;;;;;;;19.60;61.99;95095.03;5005375;28;20111;-82
2023/08/16 04:32:30;;;;;;;17.40;11.98;;;;;;;19.61;62.15;95094.56;5005248;28;20034;-79
2023/08/16 04:34:56;;;;;;;14.25;10.95;;;;;;;19.52;62.51;95079.97;5007042;28;20502;-81
2023/08/16 04:37:21;;;;;;;14.63;11.15;;;;;;;19.68;62.59;95098.16;5006480;28;20041;-79
2023/08/16 04:39:48;;;;;;;18.88;12.23;;;;;;;19.72;62.60;95102.25;5006442;28;20056;-79
2023/08/16 04:42:13;;;;;;;15.88;11.90;;;;;;;19.76;62.27;95100.00;5006465;28;20026;-79
2023/08/16 04:44:39;;;;;;;17.33;12.57;;;;;;;19.83;62.11;95096.00;5006051;28;20032;-78
2023/08/16 04:47:04;;;;;;;15.75;12.55;;;;;;;19.88;61.64;95090.47;5006462;28;20021;-79
2023/08/16 04:49:32;;;;;;;21.73;13.05;;;;;;;19.94;61.28;95086.97;5006025;28;20034;-79
2023/08/16 04:51:57;;;;;;;15.77;11.13;;;;;;;19.87;61.39;95096.56;5006280;28;20546;-79
2023/08/16 04:54:23;;;;;;;13.95;11.52;;;;;;;19.91;61.20;95099.88;5006686;28;20026;-83
2023/08/16 04:56:52;;;;;;;14.15;11.07;;;;;;;19.97;61.46;95105.53;5005774;28;20125;-80
2023/08/16 04:59:17;;;;;;;13.43;11.05;;;;;;;19.94;61.50;95098.88;5006755;28;20060;-81
2023/08/16 05:01:43;;;;;;;17.02;10.85;;;;;;;19.95;61.75;95092.03;5005645;28;20065;-88
2023/08/16 05:04:09;;;;;;;13.98;11.02;;;;;;;20.03;61.45;95092.38;5004645;28;20026;-86
2023/08/16 05:06:35;;;;;;;13.32;10.10;;;;;;;20.11;61.03;95094.19;5003795;28;20116;-83
2023/08/16 05:09:02;;;;;;;14.57;10.98;;;;;;;20.14;61.30;95098.81;5006204;28;20038;-85
2023/08/16 05:11:28;;;;;;;12.63;9.95;;;;;;;20.21;61.23;95099.63;5005185;28;20124;-78
2023/08/16 05:13:53;;;;;;;14.10;10.40;;;;;;;20.27;60.92;95103.19;5004505;28;20093;-82
2023/08/16 05:16:19;;;;;;;13.82;9.90;;;;;;;20.36;60.90;95103.03;5006064;28;20110;-82
2023/08/16 05:18:44;;;;;;;14.00;11.00;;;;;;;20.39;60.56;95102.78;5005892;28;20599;-82
2023/08/16 05:21:10;;;;;;;16.23;10.98;;;;;;;20.43;60.68;95108.16;5004834;28;20389;-84
2023/08/16 05:23:35;;;;;;;16.50;11.35;;;;;;;20.45;60.72;95090.88;5006552;28;20106;-84
2023/08/16 05:26:01;;;;;;;15.07;10.43;;;;;;;20.49;60.45;95094.25;5010064;28;20590;-84
2023/08/16 05:28:26;;;;;;;12.20;9.90;;;;;;;20.49;60.49;95094.25;4991632;28;20065;-83
2023/08/16 05:30:52;;;;;;;12.57;9.93;;;;;;;20.56;60.15;95099.38;4992107;28;20121;-84
2023/08/16 05:33:17;;;;;;;14.68;10.07;;;;;;;20.62;60.14;95098.13;5008799;28;20030;-84
2023/08/16 05:35:43;;;;;;;15.15;10.70;;;;;;;20.68;60.04;95100.94;5009773;28;20014;-84
2023/08/16 05:38:08;;;;;;;14.75;10.02;;;;;;;20.76;60.22;95088.06;5009953;28;20496;-83
2023/08/16 05:40:34;;;;;;;12.60;10.23;;;;;;;20.85;59.93;95090.63;5009895;28;20079;-83
2023/08/16 05:42:59;;;;;;;11.25;9.98;;;;;;;20.93;59.81;95088.09;5009753;28;20049;-84
2023/08/16 05:45:28;;;;;;;14.43;9.70;;;;;;;20.99;59.95;95085.34;5009265;28;20033;-83
2023/08/16 05:47:54;;;;;;;15.40;10.38;;;;;;;21.09;59.42;95078.28;5009547;28;20084;-83
2023/08/16 05:50:20;;;;;;;12.73;10.38;;;;;;;21.22;59.09;95084.19;5008764;28;20017;-84
2023/08/16 05:52:46;;;;;;;14.60;10.27;;;;;;;21.33;58.59;95091.84;5009895;28;20096;-84
2023/08/16 05:55:11;;;;;;;12.00;10.38;;;;;;;21.39;58.62;95093.41;5014592;28;20463;-83
2023/08/16 05:57:36;;;;;;;15.73;10.40;;;;;;;21.46;58.74;95092.91;5026328;28;20030;-85
2023/08/16 06:00:02;;;;;;;10.38;9.27;;;;;;;21.60;58.68;95095.97;5014224;28;20468;-85
2023/08/16 06:02:28;;;;;;;11.55;10.43;;;;;;;21.70;58.19;95091.69;5009617;28;20077;-85
2023/08/16 06:04:53;;;;;;;13.13;10.23;;;;;;;21.78;57.70;95103.13;5009481;28;20026;-85
2023/08/16 06:07:20;;;;;;;11.75;9.90;;;;;;;21.83;57.52;95093.97;5008887;28;20018;-85
2023/08/16 06:09:45;;;;;;;12.13;9.85;;;;;;;21.82;57.86;95096.00;5009039;28;20025;-84
2023/08/16 06:12:12;;;;;;;11.88;9.70;;;;;;;21.83;57.42;95091.94;5009168;28;20033;-84
2023/08/16 06:14:37;;;;;;;10.57;9.25;;;;;;;21.92;57.03;95094.50;5008517;28;20061;-83
2023/08/16 06:17:03;;;;;;;9.38;8.32;;;;;;;21.96;56.91;95089.44;5007723;28;20521;-85
2023/08/16 06:19:28;;;;;;;11.02;8.52;;;;;;;22.06;56.75;95095.50;5008012;28;20028;-84
2023/08/16 06:21:54;;;;;;;8.38;7.57;;;;;;;22.09;56.62;95093.75;5009042;28;20022;-83
2023/08/16 06:24:20;;;;;;;10.55;7.43;;;;;;;22.14;56.01;95101.41;5008599;28;20046;-84
2023/08/16 06:26:45;;;;;;;10.75;8.32;;;;;;;22.17;56.12;95086.38;5006931;28;20036;-83
2023/08/16 06:29:10;;;;;;;12.85;8.50;;;;;;;22.24;55.88;95094.25;5007003;28;20524;-82
2023/08/16 06:31:36;;;;;;;10.18;9.02;;;;;;;22.34;56.01;95086.38;5009084;28;20054;-84
2023/08/16 06:34:01;;;;;;;9.43;8.00;;;;;;;22.44;55.25;95088.41;5008717;28;20040;-83
2023/08/16 06:36:27;;;;;;;12.10;8.73;;;;;;;22.50;55.38;95091.94;5008194;28;20032;-83
2023/08/16 06:38:56;;;;;;;10.60;8.77;;;;;;;22.52;55.28;95078.19;5009135;28;20095;-82
2023/08/16 06:41:21;;;;;;;12.02;7.40;;;;;;;22.61;54.96;95079.97;5010177;28;20038;-83
2023/08/16 06:43:46;;;;;;;10.55;7.90;;;;;;;22.72;54.59;95081.97;5010363;28;20018;-83
2023/08/16 06:46:12;;;;;;;9.02;7.45;;;;;;;22.76;54.57;95083.22;5008948;28;20057;-83
2023/08/16 06:48:37;;;;;;;9.68;7.85;;;;;;;22.84;54.72;95077.84;5007980;28;20093;-84
2023/08/16 06:51:04;;;;;;;11.43;8.52;;;;;;;22.95;54.51;95083.47;5009009;28;20030;-83
2023/08/16 06:53:32;;;;;;;12.27;9.80;;;;;;;23.08;54.07;95076.53;5008626;28;20026;-84
2023/08/16 06:55:58;;;;;;;8.50;7.60;;;;;;;23.23;53.50;95079.78;5007056;28;20026;-83
2023/08/16 06:58:23;;;;;;;9.57;8.25;;;;;;;23.35;52.67;95075.63;5007210;28;20022;-84
2023/08/16 07:00:49;;;;;;;8.30;7.32;;;;;;;23.41;52.64;95067.19;5008163;28;20037;-85
2023/08/16 07:03:15;;;;;;;8.27;7.05;;;;;;;23.50;52.59;95072.47;5006505;28;20129;-82
2023/08/16 07:05:41;;;;;;;10.88;7.72;;;;;;;23.57;52.44;95069.91;5006759;28;20034;-83
2023/08/16 07:08:07;;;;;;;7.78;6.95;;;;;;;23.64;52.46;95060.19;5007841;28;20036;-85
2023/08/16 07:10:32;;;;;;;9.48;7.00;;;;;;;23.73;52.13;95065.47;5008605;28;20036;-82
2023/08/16 07:12:58;;;;;;;10.55;7.22;;;;;;;23.79;51.93;95069.00;5008546;28;20022;-83
2023/08/16 07:15:23;;;;;;;11.30;7.97;;;;;;;23.82;52.00;95061.59;5008281;28;20030;-83
2023/08/16 07:17:48;;;;;;;8.63;7.60;;;;;;;23.91;51.91;95064.06;5008644;28;20107;-84
2023/08/16 07:20:14;;;;;;;12.50;7.40;;;;;;;24.01;51.68;95073.69;5007943;28;20451;-83
2023/08/16 07:22:39;;;;;;;8.45;7.43;;;;;;;24.15;51.18;95069.00;5008461;28;20017;-82
2023/08/16 07:25:09;;;;;;;9.02;7.28;;;;;;;24.19;50.77;95065.88;5008229;28;20029;-83
2023/08/16 07:27:35;;;;;;;10.93;7.28;;;;;;;24.27;51.07;95064.78;5007951;28;20579;-83
2023/08/16 07:30:00;;;;;;;9.77;6.72;;;;;;;24.34;50.85;95058.63;5007931;28;20038;-84
2023/08/16 07:32:26;;;;;;;10.10;7.05;;;;;;;24.45;50.08;95059.81;5006597;28;20542;-84
2023/08/16 07:34:51;;;;;;;8.93;7.18;;;;;;;24.53;50.04;95063.53;5007743;28;20034;-84
2023/08/16 07:37:17;;;;;;;8.45;7.00;;;;;;;24.51;50.14;95058.47;5007531;28;20530;-83
2023/08/16 07:39:43;;;;;;;10.48;7.43;;;;;;;24.60;50.16;95060.13;4990426;28;20026;-83
2023/08/16 07:42:09;;;;;;;9.70;7.07;;;;;;;24.67;49.92;95064.44;5007226;28;20083;-84
2023/08/16 07:44:38;;;;;;;10.50;6.78;;;;;;;24.77;49.72;95065.59;5007248;28;20026;-84
2023/08/16 07:47:03;;;;;;;8.93;7.05;;;;;;;24.82;49.77;95057.09;5006719;28;20033;-84
2023/08/16 07:49:29;;;;;;;11.40;6.90;;;;;;;24.94;49.55;95060.53;5007916;28;20022;-82
2023/08/16 07:51:57;;;;;;;14.50;7.43;;;;;;;25.02;49.22;95053.03;5006618;28;20025;-85
2023/08/16 07:54:24;;;;;;;8.85;6.90;;;;;;;25.15;48.68;95061.59;5008037;28;20025;-83
2023/08/16 07:56:52;;;;;;;9.30;7.22;;;;;;;25.21;48.62;95046.69;5009728;28;20018;-84
2023/08/16 07:59:18;;;;;;;7.20;6.50;;;;;;;25.27;48.62;95048.13;5015452;28;20036;-83
2023/08/16 08:01:43;;;;;;;10.32;6.97;;;;;;;25.37;47.92;95045.72;5009165;28;20030;-84
2023/08/16 08:04:09;;;;;;;10.52;7.35;;;;;;;25.43;48.01;95049.97;5007267;28;20521;-86
2023/08/16 08:06:35;;;;;;;8.82;6.95;;;;;;;25.58;47.66;95051.56;4989881;28;20034;-84
2023/08/16 08:09:01;;;;;;;11.40;7.65;;;;;;;25.68;48.08;95050.63;5007454;28;20030;-83
2023/08/16 08:11:26;;;;;;;10.35;7.20;;;;;;;25.84;47.71;95065.78;5005706;28;20482;-84
2023/08/16 08:13:52;;;;;;;13.32;7.28;;;;;;;25.94;47.29;95061.28;5007388;28;20068;-84
2023/08/16 08:16:17;;;;;;;9.88;7.07;;;;;;;26.04;47.21;95055.25;5005317;28;20037;-84
2023/08/16 08:18:43;;;;;;;10.02;7.07;;;;;;;26.12;46.78;95051.25;5007208;28;20613;-85
2023/08/16 08:21:08;;;;;;;10.38;7.50;;;;;;;26.28;46.29;95048.69;5006521;28;20049;-84
2023/08/16 08:23:34;;;;;;;8.20;7.40;;;;;;;26.49;45.83;95049.59;5007042;28;20054;-85
2023/08/16 08:25:59;;;;;;;9.60;6.25;;;;;;;26.57;45.40;95058.97;5006074;28;20456;-85
2023/08/16 08:28:25;;;;;;;8.32;6.20;;;;;;;26.57;45.48;95044.88;5006427;28;20411;-84
2023/08/16 08:30:50;;;;;;;8.90;6.65;;;;;;;26.68;45.74;95047.47;5006835;28;20033;-84
2023/08/16 08:33:16;;;;;;;9.93;6.38;;;;;;;26.87;45.29;95047.38;5006294;28;20026;-84
2023/08/16 08:35:42;;;;;;;8.35;6.10;;;;;;;26.97;44.33;95047.69;5006696;28;20025;-84
2023/08/16 08:38:07;;;;;;;8.90;6.82;;;;;;;27.05;43.89;95050.59;5006487;28;20053;-84
2023/08/16 08:40:32;;;;;;;7.85;6.13;;;;;;;27.08;43.55;95050.31;5006788;28;20032;-83
2023/08/16 08:42:59;;;;;;;7.60;6.22;;;;;;;27.18;43.97;95050.63;5006044;28;20117;-84
2023/08/16 08:45:26;;;;;;;8.70;6.55;;;;;;;27.26;43.90;95037.38;5005418;28;20254;-83
2023/08/16 08:47:54;;;;;;;9.50;6.35;;;;;;;27.48;43.40;95038.97;5008897;28;20507;-83
2023/08/16 08:50:19;;;;;;;10.10;6.55;;;;;;;27.57;42.97;95043.38;5015317;28;20108;-84
2023/08/16 08:52:50;;;;;;;9.75;6.38;;;;;;;27.73;42.80;95037.38;5014704;28;20054;-83
2023/08/16 08:55:15;;;;;;;9.23;6.22;;;;;;;27.86;42.70;95038.63;5015972;28;20039;-83
2023/08/16 08:57:42;;;;;;;9.80;6.70;;;;;;;28.09;42.47;95041.66;5010151;28;20025;-84
2023/08/16 09:00:10;;;;;;;7.05;6.30;;;;;;;28.31;40.96;95041.13;5005699;28;20091;-83
2023/08/16 09:02:37;;;;;;;9.57;6.53;;;;;;;28.47;40.64;95039.19;5006568;28;20048;-86
2023/08/16 09:05:04;;;;;;;7.70;6.60;;;;;;;28.66;40.45;95041.78;5006500;28;20034;-84
2023/08/16 09:07:31;;;;;;;8.68;6.28;;;;;;;28.93;40.02;95036.72;5004980;28;20026;-82
2023/08/16 09:09:58;;;;;;;8.05;6.05;;;;;;;29.18;39.62;95046.28;5006364;28;20030;-82
2023/08/16 09:12:24;;;;;;;7.35;6.13;;;;;;;29.49;39.26;95052.09;5004828;28;20030;-83
2023/08/16 09:14:49;;;;;;;10.75;6.50;;;;;;;29.62;38.86;95043.47;5005823;28;20022;-83
2023/08/16 09:17:14;;;;;;;9.68;6.97;;;;;;;29.84;38.39;95048.44;5006065;28;20400;-81
2023/08/16 09:19:44;;;;;;;8.70;6.85;;;;;;;30.09;38.14;95043.00;5004652;28;20034;-83
2023/08/16 09:22:11;;;;;;;7.95;6.15;;;;;;;30.29;38.07;95041.34;5006008;28;20026;-82
2023/08/16 09:24:37;;;;;;;9.45;7.30;;;;;;;30.62;37.16;95045.13;5005800;28;20495;-82
2023/08/16 09:27:02;;;;;;;10.30;6.50;;;;;;;30.90;36.56;95037.72;5006078;28;20030;-83
2023/08/16 09:29:30;;;;;;;8.23;5.82;;;;;;;31.12;36.22;95039.75;5005797;28;20100;-81
2023/08/16 09:31:55;;;;;;;8.05;6.13;;;;;;;31.26;36.21;95040.34;5006353;28;20100;-82
2023/08/16 09:34:21;;;;;;;10.95;5.97;;;;;;;31.19;35.96;95030.47;5006207;28;20105;-83
2023/08/16 09:36:46;;;;;;;10.57;6.70;;;;;;;31.22;35.99;95024.97;5006183;28;20021;-82
2023/08/16 09:39:12;;;;;;;11.80;6.10;;;;;;;31.29;34.97;95029.91;5006131;28;20130;-81
2023/08/16 09:41:50;;;;;;;10.38;5.93;;;;;;;31.31;35.32;95035.75;5004950;28;20057;-82
2023/08/16 09:44:17;;;;;;;9.43;6.57;;;;;;;31.35;35.40;95030.44;5005684;28;20026;-82
2023/08/16 09:46:42;;;;;;;9.38;6.90;;;;;;;31.35;35.10;95034.03;5004336;28;20117;-82
2023/08/16 09:49:09;;;;;;;9.80;6.43;;;;;;;31.33;34.26;95031.03;5003492;28;20176;-82
2023/08/16 09:51:36;;;;;;;13.05;6.80;;;;;;;31.29;35.09;95030.66;5002679;28;20062;-82
2023/08/16 09:54:03;;;;;;;8.88;6.40;;;;;;;31.20;34.94;95034.09;5007099;28;20022;-83
2023/08/16 09:56:32;;;;;;;7.55;6.38;;;;;;;31.15;34.74;95032.97;4992239;28;20433;-83
2023/08/16 09:58:59;;;;;;;7.97;6.50;;;;;;;31.19;34.55;95038.97;5007632;28;20045;-83
2023/08/16 10:01:26;;;;;;;9.15;6.25;;;;;;;31.30;34.67;95029.31;4988239;28;20029;-83
2023/08/16 10:03:53;;;;;;;9.73;6.03;;;;;;;31.54;34.48;95033.56;5005873;28;20057;-82
2023/08/16 10:06:23;;;;;;;7.03;6.00;;;;;;;31.69;34.14;95038.44;4988276;28;20034;-82
2023/08/16 10:08:49;;;;;;;7.97;5.78;;;;;;;31.53;33.74;95037.00;4988054;28;20432;-83
2023/08/16 10:11:15;;;;;;;8.55;6.05;;;;;;;31.78;33.32;95035.00;5007642;28;20028;-82
2023/08/16 10:13:41;;;;;;;7.78;5.93;;;;;;;31.95;33.36;95032.25;4991360;28;20018;-82
2023/08/16 10:16:11;;;;;;;9.80;6.50;;;;;;;32.02;33.15;95032.78;4991650;28;20037;-82
2023/08/16 10:18:38;;;;;;;8.32;5.15;;;;;;;32.17;32.56;95026.97;4991391;28;20022;-83
2023/08/16 10:21:04;;;;;;;8.43;6.28;;;;;;;32.06;32.44;95033.13;5009663;28;20057;-82
2023/08/16 10:23:30;;;;;;;9.80;5.55;;;;;;;32.17;32.27;95026.97;4991447;28;20480;-81
2023/08/16 10:25:57;;;;;;;10.60;5.93;;;;;;;32.05;32.78;95025.94;4991851;28;20080;-83
2023/08/16 10:28:24;;;;;;;7.47;6.07;;;;;;;32.01;34.23;95034.13;4991285;28;20538;-82
2023/08/16 10:30:52;;;;;;;7.50;6.30;;;;;;;32.01;34.17;95034.88;4990882;28;20100;-82
2023/08/16 10:33:23;;;;;;;8.68;6.00;;;;;;;31.86;33.87;95034.97;4991219;28;20661;-81
2023/08/16 10:35:50;;;;;;;9.50;6.80;;;;;;;31.81;34.04;95033.84;4991719;28;20113;-84
2023/08/16 10:38:16;;;;;;;9.10;6.72;;;;;;;31.85;34.26;95033.47;5009878;28;20487;-83
2023/08/16 10:40:42;;;;;;;9.35;6.25;;;;;;;31.95;33.97;95026.59;5009310;28;20095;-83
2023/08/16 10:43:08;;;;;;;7.25;6.30;;;;;;;32.17;34.07;95024.94;5009455;28;20025;-83
2023/08/16 10:45:34;;;;;;;9.90;6.45;;;;;;;32.36;33.08;95021.56;5009405;28;20503;-83
2023/08/16 10:48:21;;;;;;;9.07;5.90;;;;;;;32.45;32.52;95023.00;5008541;28;20030;-83
2023/08/16 10:50:57;;;;;;;8.70;6.22;;;;;;;32.65;32.79;95026.84;5007638;28;20041;-83
2023/08/16 10:53:25;;;;;;;8.20;5.82;;;;;;;32.70;32.30;95018.06;5008778;28;20091;-82
2023/08/16 10:55:57;;;;;;;8.75;5.93;;;;;;;32.88;31.36;95012.41;5008764;28;20101;-83
2023/08/16 10:58:23;;;;;;;7.30;6.03;;;;;;;33.14;31.46;95013.81;4975335;28;20068;-83
2023/08/16 11:00:59;;;;;;;6.32;5.40;;;;;;;33.41;30.48;95014.69;5008214;28;20036;-82
2023/08/16 11:03:32;;;;;;;10.27;5.63;;;;;;;33.69;30.60;95015.47;4990915;28;20081;-83
2023/08/16 11:06:06;;;;;;;11.30;6.07;;;;;;;33.96;29.58;95021.97;5007701;28;20697;-82
2023/08/16 11:08:32;;;;;;;9.70;5.20;;;;;;;34.11;29.24;95015.28;5008676;28;20064;-81
2023/08/16 11:10:58;;;;;;;7.43;5.40;;;;;;;34.25;28.64;95016.41;5008066;28;20057;-83
2023/08/16 11:13:24;;;;;;;7.15;4.72;;;;;;;34.07;28.71;95012.13;5008316;28;20026;-82
2023/08/16 11:15:49;;;;;;;8.43;5.35;;;;;;;34.12;29.26;95013.91;4990951;28;20034;-83
2023/08/16 11:18:31;;;;;;;5.88;5.30;;;;;;;34.32;29.66;95014.78;5007948;28;20025;-82
2023/08/16 11:21:00;;;;;;;7.47;5.47;;;;;;;34.45;29.51;95017.25;5008296;28;20113;-83